Funds performance table by strategy

help icon
fund name 1 mth 3 mth 12 mthsort icon ytd Inception Net assets Return Date
Transparent Value Large-Cap Value I -2% 0% 13% -2% 13% - 2015-01-31
JPM Global Dynamic X (acc)-EUR (hedged) 0% 2% 13% 0% 16% 529M 2015-01-31
LGT Sustainable Equity Global (USD) I1 4% 3% 13% 4% 15% 181M 2015-01-31
Threadneedle Amer SmCos Ret Net GBP 2% 3% 13% 5% 10% 459M 2014-06-30
Vanguard Russell 1000 ETF -2% 0% 13% -2% 16% - 2015-01-31
CFS FC W PSup-FirstChoice W M-Index Div 2% 0% 13% 7% 0% 56M 2013-07-31
BlackRock MuniHoldings CA Qty 2% 2% 13% 2% 6% - 2015-01-31
AXA WF Frm Human Capital I-D EUR 7% 11% 13% 7% 9% 346M 2015-01-31
Investec Opportunity Z 3% 5% 13% 3% 16% 4295M 2015-01-31
Coronation Equity B2 2% 3% 13% 2% 0% 4295M 2015-01-31
Henderson Horizon Pan Eurp Alpha I1 -1% 3% 13% 5% 3% 193M 2012-09-30
ComStage HSI ETF 4% 2% 13% 4% 6% 307M 2015-01-31
American Century Income & Growth Inst -3% -1% 13% -3% 6% - 2015-01-31
Albatross Alternative Assets - EUR Class 2% 5% 13% 13% 0% 145M 2014-12-31
Helvetia I Europa IA 7% 9% 13% 7% 0% 281M 2015-01-31
PPS Balanced FoF B 1% 3% 13% 1% 15% 780M 2015-01-31
AXA WF Frm Human Capital I-C EUR 7% 11% 13% 7% 18% 346M 2015-01-31
ING International Value Choice I -3% 0% 13% 1% 1% - 2013-06-30
Sarasin EquiSar Socially Rspnb I Inc 0% 3% 13% 0% 9% 31M 2015-01-31
Amundi Fds Eq Japan Value IHE-C 0% 4% 13% 0% 9% 79M 2015-01-31
First Trust Morningstar Div Leaders ETF -1% -1% 13% -1% 5% - 2015-01-31
UTI Wealth Builder Ser II Gr 1% 0% 13% 0% 28% 4295M 2011-07-31
Altegris Managed Futures Strategy I 3% 7% 13% 3% 0% - 2015-01-31
GMO Quality V -2% 0% 13% -2% 7% - 2015-01-31
Candriam Eqs L Asia Z Acc 2% 1% 13% 2% 7% 88M 2015-01-31
Macquarie Core Equities 0% 3% 13% 7% 8% 142M 2014-08-31
First Asset MstarUSDivTgt50 ETF CADHAdv -1% 0% 13% -1% 12% 118M 2015-01-31
PIMCO GIS StocksPlus Inst EUR Hdg Acc -3% 0% 13% -3% 5% 1021M 2015-01-31
Parvest Equity Best Sel Euro I C 6% 9% 13% 6% 8% 1213M 2015-01-31
BlackRock Russell 1000® Index K -2% 0% 13% -2% 13% - 2015-01-31

All our data is licensed from Morningstar UK Ltd. Important legal information